Time;durP1;ratioP1;P1;durP2;ratioP2;P2;SDS_P1;SDS_P2;PMS_P1;PMS_P2;Temp;Humidity;BMP_temperature;BMP_pressure;BME280_temperature;BME280_humidity;BME280_pressure;Samples;Min_cycle;Max_cycle;Signal;HPM_P1;HPM_P2
2023/02/10 00:01:42;;;;;;;29.50;19.95;;;0.70;99.90;;;;;;4996024;28;20237;-78
2023/02/10 00:04:12;;;;;;;32.80;18.70;;;0.60;99.90;;;;;;4994795;28;21180;-78
2023/02/10 00:06:42;;;;;;;32.85;19.27;;;0.70;99.90;;;;;;5000801;28;20210;-78
2023/02/10 00:09:13;;;;;;;26.58;19.38;;;0.70;99.90;;;;;;4996905;28;20535;-77
2023/02/10 00:12:00;;;;;;;29.33;18.38;;;0.60;99.90;;;;;;4993610;28;20218;-78
2023/02/10 00:14:29;;;;;;;30.52;19.65;;;0.60;99.90;;;;;;4994507;28;20285;-78
2023/02/10 00:16:57;;;;;;;30.05;18.75;;;0.50;99.90;;;;;;4995600;28;20199;-78
2023/02/10 00:19:28;;;;;;;32.35;19.40;;;0.60;99.90;;;;;;4996146;28;20457;-78
2023/02/10 00:21:57;;;;;;;25.63;17.98;;;0.50;99.90;;;;;;4996099;28;21418;-77
2023/02/10 00:24:25;;;;;;;26.48;17.67;;;0.50;99.90;;;;;;4997242;28;20245;-79
2023/02/10 00:26:54;;;;;;;22.90;16.88;;;0.50;99.90;;;;;;4994460;28;20739;-79
2023/02/10 00:29:22;;;;;;;27.67;16.85;;;0.60;99.90;;;;;;4992402;28;20681;-75
2023/02/10 00:31:50;;;;;;;30.25;17.55;;;0.50;99.90;;;;;;4992174;28;20223;-78
2023/02/10 00:34:18;;;;;;;23.63;15.32;;;0.50;99.90;;;;;;4992550;28;20204;-77
2023/02/10 00:36:49;;;;;;;23.98;16.38;;;0.50;99.90;;;;;;4995230;28;20624;-77
2023/02/10 00:39:18;;;;;;;25.48;17.75;;;0.40;99.90;;;;;;4988503;28;20207;-77
2023/02/10 00:41:47;;;;;;;27.77;18.63;;;0.30;99.90;;;;;;4995380;28;20215;-77
2023/02/10 00:44:15;;;;;;;25.48;17.52;;;0.30;99.90;;;;;;4992074;28;20277;-76
2023/02/10 00:46:43;;;;;;;26.10;17.17;;;0.20;99.90;;;;;;5008629;28;20191;-78
2023/02/10 00:49:12;;;;;;;22.27;14.93;;;0.20;99.90;;;;;;4995045;28;20247;-77
2023/02/10 00:51:40;;;;;;;25.33;16.20;;;0.30;99.90;;;;;;4988648;28;20230;-77
2023/02/10 00:54:08;;;;;;;25.85;14.55;;;0.10;99.90;;;;;;4994716;28;20671;-78
2023/02/10 00:56:38;;;;;;;26.65;15.75;;;0.10;99.90;;;;;;4986576;28;20666;-77
2023/02/10 00:59:06;;;;;;;22.23;15.77;;;0.00;99.90;;;;;;5000161;28;20206;-77
2023/02/10 01:01:34;;;;;;;27.10;17.05;;;0.10;99.90;;;;;;4998514;28;20731;-77
2023/02/10 01:04:02;;;;;;;22.70;15.65;;;0.10;99.90;;;;;;4998361;28;20320;-77
2023/02/10 01:06:30;;;;;;;20.88;15.30;;;0.20;99.90;;;;;;4996202;28;20203;-77
2023/02/10 01:08:58;;;;;;;21.80;13.80;;;0.10;99.90;;;;;;4996220;28;20309;-77
2023/02/10 01:11:26;;;;;;;19.52;13.98;;;0.00;99.90;;;;;;4998252;28;20297;-77
2023/02/10 01:13:56;;;;;;;23.13;16.27;;;0.00;99.90;;;;;;4996898;28;20226;-77
2023/02/10 01:16:24;;;;;;;25.25;17.42;;;-0.10;99.90;;;;;;4993933;28;20209;-78
2023/02/10 01:18:53;;;;;;;23.40;16.02;;;0.00;99.90;;;;;;4999890;28;20219;-77
2023/02/10 01:21:22;;;;;;;27.30;16.55;;;0.10;99.90;;;;;;4998077;28;20679;-77
2023/02/10 01:23:50;;;;;;;24.95;17.23;;;0.10;99.90;;;;;;4997864;28;20709;-77
2023/02/10 01:26:18;;;;;;;25.60;16.88;;;0.10;99.90;;;;;;4994042;28;20284;-77
2023/02/10 01:28:46;;;;;;;29.05;17.95;;;0.20;99.90;;;;;;4996310;28;20274;-77
2023/02/10 01:31:18;;;;;;;33.60;19.73;;;0.20;99.90;;;;;;4997487;28;20228;-78
2023/02/10 01:33:47;;;;;;;27.00;17.40;;;0.20;99.90;;;;;;4995730;28;20202;-77
2023/02/10 01:36:17;;;;;;;25.65;15.75;;;0.00;99.90;;;;;;4997568;28;20202;-76
2023/02/10 01:38:46;;;;;;;31.20;19.80;;;0.00;99.90;;;;;;4998938;28;20262;-77
2023/02/10 01:41:16;;;;;;;28.55;19.55;;;-0.10;99.90;;;;;;4996918;28;20226;-76
2023/02/10 01:44:00;;;;;;;30.17;18.48;;;0.00;99.90;;;;;;4990125;28;20214;-77
2023/02/10 01:46:32;;;;;;;29.27;17.83;;;0.00;99.90;;;;;;4991991;28;20927;-77
2023/02/10 01:49:03;;;;;;;28.70;18.35;;;-0.10;99.90;;;;;;4994813;28;20196;-76
2023/02/10 01:51:38;;;;;;;28.55;19.83;;;-0.10;99.90;;;;;;4995044;28;21159;-77
2023/02/10 01:54:09;;;;;;;27.08;19.80;;;-0.40;99.90;;;;;;4980255;28;20202;-77
2023/02/10 01:56:37;;;;;;;25.83;18.73;;;-0.30;99.90;;;;;;4993549;28;20229;-76
2023/02/10 01:59:05;;;;;;;33.25;19.45;;;-0.20;99.90;;;;;;4992706;28;20883;-76
2023/02/10 02:01:35;;;;;;;27.52;17.58;;;-0.10;99.90;;;;;;4984297;28;20248;-76
2023/02/10 02:04:03;;;;;;;28.13;18.02;;;-0.20;99.90;;;;;;4991408;28;20198;-75
2023/02/10 02:06:32;;;;;;;28.08;17.25;;;-0.20;99.90;;;;;;4990937;28;20210;-77
2023/02/10 02:09:01;;;;;;;28.60;17.60;;;-0.30;99.90;;;;;;4994249;28;20190;-77
2023/02/10 02:11:40;;;;;;;25.33;17.17;;;-0.40;99.90;;;;;;5014255;28;20767;-76
2023/02/10 02:14:21;;;;;;;25.45;16.85;;;-0.50;99.90;;;;;;4994295;28;20202;-78
2023/02/10 02:17:03;;;;;;;28.60;19.42;;;-0.50;99.90;;;;;;4997090;28;20210;-77
2023/02/10 02:23:10;;;;;;;25.10;15.80;;;-0.50;99.90;;;;;;4993347;28;20199;-77
2023/02/10 02:26:05;;;;;;;25.38;16.83;;;-0.40;99.90;;;;;;4992982;28;20667;-77
2023/02/10 02:28:47;;;;;;;29.25;18.95;;;-0.30;99.90;;;;;;4974282;28;20535;-77
2023/02/10 02:31:49;;;;;;;29.42;16.95;;;-0.30;99.90;;;;;;4992531;28;20262;-76
2023/02/10 02:34:23;;;;;;;27.48;17.08;;;-0.50;99.90;;;;;;4990256;28;20202;-77
2023/02/10 02:36:56;;;;;;;25.92;17.13;;;-0.50;99.90;;;;;;4994988;28;21159;-77
2023/02/10 02:39:24;;;;;;;25.55;17.88;;;-0.50;99.90;;;;;;4994061;28;20216;-77
2023/02/10 02:42:13;;;;;;;25.30;17.90;;;-0.30;99.90;;;;;;4993985;28;20215;-77
2023/02/10 02:44:42;;;;;;;27.80;17.70;;;-0.50;99.90;;;;;;4995798;28;20191;-77
2023/02/10 02:47:18;;;;;;;28.25;18.02;;;-0.40;99.90;;;;;;4994969;28;20264;-77
2023/02/10 02:49:52;;;;;;;26.77;16.80;;;-0.40;99.90;;;;;;4992216;28;20615;-77
2023/02/10 02:52:27;;;;;;;23.65;16.63;;;-0.40;99.90;;;;;;4997760;28;20235;-77
2023/02/10 02:55:04;;;;;;;24.35;16.98;;;-0.40;99.90;;;;;;4993669;28;20195;-77
2023/02/10 02:57:43;;;;;;;30.25;19.50;;;-0.60;99.90;;;;;;4994569;28;20294;-77
2023/02/10 03:00:16;;;;;;;27.83;17.85;;;-0.50;99.90;;;;;;4996868;28;21033;-77
2023/02/10 03:02:47;;;;;;;26.25;16.45;;;-0.50;99.90;;;;;;5002612;28;20206;-78
2023/02/10 03:05:19;;;;;;;27.05;17.60;;;-0.40;99.90;;;;;;4997777;28;20232;-78
2023/02/10 03:07:47;;;;;;;27.55;17.55;;;-0.40;99.90;;;;;;4995582;28;20199;-78
2023/02/10 03:10:15;;;;;;;25.45;16.73;;;-0.50;99.90;;;;;;4998560;28;20213;-78
2023/02/10 03:12:43;;;;;;;23.80;17.08;;;-0.40;99.90;;;;;;4998264;28;20198;-76
2023/02/10 03:15:11;;;;;;;27.30;17.67;;;-0.50;99.90;;;;;;4996054;28;20249;-77
2023/02/10 03:17:40;;;;;;;27.73;17.05;;;-0.50;99.90;;;;;;5002030;28;20202;-75
2023/02/10 03:20:11;;;;;;;27.63;18.23;;;-0.40;99.90;;;;;;5001587;28;20661;-77
2023/02/10 03:22:39;;;;;;;29.55;18.25;;;-0.40;99.90;;;;;;5000598;28;20316;-77
2023/02/10 03:25:07;;;;;;;26.77;18.10;;;-0.40;99.90;;;;;;4999369;28;20924;-77
2023/02/10 03:27:35;;;;;;;22.98;16.27;;;-0.40;99.90;;;;;;4996380;28;20202;-78
2023/02/10 03:30:04;;;;;;;22.52;17.10;;;-0.50;99.90;;;;;;4998569;28;20221;-77
2023/02/10 03:32:32;;;;;;;29.40;18.65;;;-0.50;99.90;;;;;;4995263;28;20219;-77
2023/02/10 03:35:00;;;;;;;31.92;20.95;;;-0.50;99.90;;;;;;4997326;28;20218;-78
2023/02/10 03:37:30;;;;;;;27.25;16.80;;;-0.40;99.90;;;;;;4996449;28;20299;-77
2023/02/10 03:39:58;;;;;;;25.23;16.85;;;-0.40;99.90;;;;;;4996402;28;20207;-78
2023/02/10 03:42:26;;;;;;;25.38;16.30;;;-0.40;99.90;;;;;;4996698;28;20313;-76
2023/02/10 03:44:54;;;;;;;22.40;15.50;;;-0.40;99.90;;;;;;4999421;28;20198;-76
2023/02/10 03:47:22;;;;;;;26.63;17.63;;;-0.40;99.90;;;;;;4998349;28;20195;-78
2023/02/10 03:49:51;;;;;;;25.55;17.00;;;-0.70;99.90;;;;;;4996588;28;20289;-78
2023/02/10 03:52:19;;;;;;;29.88;17.23;;;-0.60;99.90;;;;;;4996044;28;20226;-78
2023/02/10 03:54:48;;;;;;;29.80;18.25;;;-0.60;99.90;;;;;;5002455;28;20209;-78
2023/02/10 03:57:18;;;;;;;25.83;16.45;;;-0.60;99.90;;;;;;4998216;28;20214;-78
2023/02/10 03:59:46;;;;;;;26.05;17.13;;;-0.70;99.90;;;;;;4997377;28;20199;-78
2023/02/10 04:02:14;;;;;;;28.88;20.35;;;-0.80;99.90;;;;;;5012598;28;20210;-78
2023/02/10 04:04:42;;;;;;;25.75;16.80;;;-0.70;99.90;;;;;;5002304;28;20202;-77
2023/02/10 04:07:10;;;;;;;28.85;17.25;;;-0.70;99.90;;;;;;4997325;28;20206;-77
2023/02/10 04:09:39;;;;;;;22.70;16.83;;;-0.80;99.90;;;;;;4996780;28;20206;-78
2023/02/10 04:12:08;;;;;;;25.83;17.17;;;-0.80;99.90;;;;;;4995162;28;20226;-78
2023/02/10 04:14:36;;;;;;;23.85;17.05;;;-1.10;99.90;;;;;;4996027;28;20206;-77
2023/02/10 04:17:04;;;;;;;27.77;19.17;;;-0.90;99.90;;;;;;4995458;28;20195;-77
2023/02/10 04:19:33;;;;;;;23.75;15.85;;;-1.00;99.90;;;;;;4996723;28;20203;-77
2023/02/10 04:22:01;;;;;;;29.65;17.33;;;-1.10;99.90;;;;;;5000407;28;20251;-78
2023/02/10 04:24:29;;;;;;;29.95;18.02;;;-1.00;99.90;;;;;;5000080;28;20203;-78
2023/02/10 04:26:57;;;;;;;26.67;18.20;;;-0.90;99.90;;;;;;4996903;28;20619;-78
2023/02/10 04:29:26;;;;;;;23.77;17.67;;;-0.90;99.90;;;;;;4994774;28;20203;-79
2023/02/10 04:31:54;;;;;;;29.83;18.17;;;-1.00;99.90;;;;;;4994993;28;20214;-77
2023/02/10 04:34:23;;;;;;;23.83;16.92;;;-1.10;99.90;;;;;;4998245;28;20206;-78
2023/02/10 04:36:51;;;;;;;24.80;17.27;;;-1.10;99.90;;;;;;4992918;28;20229;-77
2023/02/10 04:39:19;;;;;;;27.38;16.88;;;-1.10;99.90;;;;;;4993815;28;20203;-77
2023/02/10 04:41:47;;;;;;;21.60;16.27;;;-1.00;99.90;;;;;;4998219;28;20336;-77
2023/02/10 04:44:15;;;;;;;21.10;15.13;;;-1.10;99.90;;;;;;4996287;28;20817;-78
2023/02/10 04:46:44;;;;;;;24.05;14.75;;;-1.00;99.90;;;;;;4996621;28;20268;-77
2023/02/10 04:49:20;;;;;;;24.88;15.90;;;-1.00;99.90;;;;;;4998443;28;20210;-77
2023/02/10 04:51:48;;;;;;;21.45;15.55;;;-1.20;99.90;;;;;;5001403;28;20356;-77
2023/02/10 04:54:17;;;;;;;25.17;15.80;;;-1.30;99.90;;;;;;4998612;28;20203;-78
2023/02/10 04:56:45;;;;;;;28.38;17.38;;;-1.10;99.90;;;;;;4993005;28;20202;-79
2023/02/10 04:59:13;;;;;;;27.98;15.85;;;-1.20;99.90;;;;;;4999344;28;20211;-77
2023/02/10 05:01:41;;;;;;;27.15;15.15;;;-1.10;99.90;;;;;;4997960;28;20208;-77
2023/02/10 05:04:11;;;;;;;24.02;16.27;;;-1.20;99.90;;;;;;4999128;28;20216;-77
2023/02/10 05:06:39;;;;;;;21.65;15.23;;;-1.20;99.90;;;;;;4998729;28;20630;-77
2023/02/10 05:09:07;;;;;;;26.95;16.15;;;-1.10;99.90;;;;;;5003160;28;20199;-77
2023/02/10 05:11:36;;;;;;;21.92;15.30;;;-1.10;99.90;;;;;;4999828;28;20770;-77
2023/02/10 05:14:04;;;;;;;22.88;15.80;;;-1.10;99.90;;;;;;4999360;28;20284;-77
2023/02/10 05:16:32;;;;;;;26.88;16.55;;;-1.10;99.90;;;;;;4997247;28;20203;-78
2023/02/10 05:19:00;;;;;;;23.75;16.00;;;-1.00;99.90;;;;;;4995455;28;20210;-77
2023/02/10 05:21:29;;;;;;;23.20;14.38;;;-1.00;99.90;;;;;;5000301;28;20276;-78
2023/02/10 05:23:58;;;;;;;23.48;15.93;;;-0.90;99.90;;;;;;4995779;28;20207;-75
2023/02/10 05:26:26;;;;;;;22.98;15.10;;;-0.90;99.90;;;;;;5002369;28;20326;-79
2023/02/10 05:28:54;;;;;;;26.63;16.02;;;-1.00;99.90;;;;;;4999777;28;20709;-78
2023/02/10 05:31:23;;;;;;;25.00;14.80;;;-1.00;99.90;;;;;;4994423;28;20248;-78
2023/02/10 05:33:53;;;;;;;27.30;16.10;;;-1.10;99.90;;;;;;4994603;28;20206;-78
2023/02/10 05:36:21;;;;;;;40.33;20.88;;;-1.00;99.90;;;;;;4997679;28;20985;-78
2023/02/10 05:41:33;;;;;;;22.92;15.02;;;-0.70;99.90;;;;;;4994371;28;20214;-76
2023/02/10 05:44:03;;;;;;;25.27;16.40;;;-0.80;99.90;;;;;;4997577;28;20662;-77
2023/02/10 05:46:31;;;;;;;21.77;15.98;;;-0.80;99.90;;;;;;4994998;28;20702;-77
2023/02/10 05:48:59;;;;;;;24.48;17.40;;;-0.80;99.90;;;;;;4995054;28;20202;-76
2023/02/10 05:51:27;;;;;;;21.55;15.63;;;-0.80;99.90;;;;;;4995836;28;20316;-76
2023/02/10 05:53:57;;;;;;;22.92;17.27;;;-0.80;99.90;;;;;;4992928;28;20210;-75
2023/02/10 05:56:25;;;;;;;23.80;15.15;;;-0.80;99.90;;;;;;4991366;28;20285;-76
2023/02/10 05:58:53;;;;;;;22.30;15.07;;;-0.90;99.90;;;;;;4995973;28;20267;-78
2023/02/10 06:01:21;;;;;;;22.75;16.40;;;-1.00;99.90;;;;;;4991048;28;20230;-76
2023/02/10 06:03:50;;;;;;;26.77;15.32;;;-0.90;99.90;;;;;;4991317;28;20330;-77
2023/02/10 06:06:18;;;;;;;21.98;15.93;;;-1.00;99.90;;;;;;4997246;28;20211;-76
2023/02/10 06:08:46;;;;;;;26.20;16.88;;;-0.90;99.90;;;;;;4993124;28;20287;-76
2023/02/10 06:11:16;;;;;;;27.65;17.08;;;-1.00;99.90;;;;;;4998006;28;20256;-77
2023/02/10 06:13:44;;;;;;;22.92;14.15;;;-0.90;99.90;;;;;;4993692;28;20221;-77
2023/02/10 06:16:12;;;;;;;29.23;16.42;;;-0.90;99.90;;;;;;4993099;28;20289;-77
2023/02/10 06:18:40;;;;;;;22.00;16.55;;;-0.90;99.90;;;;;;4994777;28;20205;-76
2023/02/10 06:21:08;;;;;;;29.08;17.02;;;-1.00;99.90;;;;;;4993528;28;20240;-77
2023/02/10 06:23:36;;;;;;;22.33;15.75;;;-0.80;99.90;;;;;;4993968;28;20197;-75
2023/02/10 06:26:05;;;;;;;21.35;14.30;;;-0.80;99.90;;;;;;4996367;28;20199;-77
2023/02/10 06:28:34;;;;;;;18.40;14.70;;;-0.90;99.90;;;;;;4993143;28;20662;-77
2023/02/10 06:31:03;;;;;;;27.65;16.02;;;-0.80;99.90;;;;;;4988844;28;20215;-77
2023/02/10 06:33:34;;;;;;;24.45;16.48;;;-1.00;99.90;;;;;;4990374;28;20211;-76
2023/02/10 06:36:04;;;;;;;24.60;15.70;;;-1.00;99.90;;;;;;4992247;28;20187;-76
2023/02/10 06:38:33;;;;;;;24.63;16.98;;;-1.00;99.90;;;;;;4993562;28;20191;-76
2023/02/10 06:41:01;;;;;;;25.00;16.92;;;-1.10;99.90;;;;;;4993703;28;20982;-77
2023/02/10 06:43:30;;;;;;;26.48;16.92;;;-1.10;99.90;;;;;;4990065;28;20666;-77
2023/02/10 06:45:59;;;;;;;24.55;15.45;;;-0.90;99.90;;;;;;4988299;28;20581;-76
2023/02/10 06:48:28;;;;;;;21.95;16.25;;;-0.80;99.90;;;;;;4995747;28;20204;-77
2023/02/10 06:50:56;;;;;;;23.20;16.10;;;-0.90;99.90;;;;;;4994070;28;20546;-78
2023/02/10 06:53:24;;;;;;;27.40;18.33;;;-0.80;99.90;;;;;;4999223;28;20218;-77
2023/02/10 06:55:55;;;;;;;23.40;15.70;;;-0.90;99.90;;;;;;4997322;28;20207;-76
2023/02/10 06:58:24;;;;;;;23.85;16.27;;;-0.90;99.90;;;;;;5000189;28;20293;-76
2023/02/10 07:00:52;;;;;;;25.80;16.58;;;-0.90;99.90;;;;;;5001423;28;20454;-76
2023/02/10 07:03:21;;;;;;;25.75;17.17;;;-0.80;99.90;;;;;;4994750;28;20231;-77
2023/02/10 07:05:50;;;;;;;25.83;16.02;;;-0.90;99.90;;;;;;4995779;28;20289;-76
2023/02/10 07:08:19;;;;;;;24.33;15.77;;;-0.90;99.90;;;;;;4999951;28;20211;-76
2023/02/10 07:10:47;;;;;;;26.23;15.88;;;-0.90;99.90;;;;;;4998248;28;20222;-76
2023/02/10 07:13:16;;;;;;;17.80;14.32;;;-0.80;99.90;;;;;;5001078;28;20261;-76
2023/02/10 07:15:44;;;;;;;27.58;14.15;;;-0.80;99.90;;;;;;4994229;28;20206;-78
2023/02/10 07:18:12;;;;;;;21.17;15.75;;;-0.70;99.90;;;;;;4998214;28;20611;-73
2023/02/10 07:20:42;;;;;;;27.42;16.52;;;-0.70;99.90;;;;;;4994434;28;20203;-76
2023/02/10 07:23:10;;;;;;;29.10;17.33;;;-0.70;99.90;;;;;;4995232;28;20186;-77
2023/02/10 07:25:38;;;;;;;24.38;15.43;;;-0.80;99.90;;;;;;4997501;28;20199;-76
2023/02/10 07:28:07;;;;;;;22.77;15.00;;;-0.80;99.90;;;;;;4996143;28;20288;-77
2023/02/10 07:30:36;;;;;;;25.10;16.60;;;-0.50;99.90;;;;;;4998516;28;20210;-76
2023/02/10 07:33:04;;;;;;;24.85;16.77;;;-0.50;99.90;;;;;;4996931;28;20224;-77
2023/02/10 07:35:32;;;;;;;24.92;18.10;;;-0.50;99.90;;;;;;4995325;28;20698;-76
2023/02/10 07:38:02;;;;;;;26.58;18.60;;;-0.40;99.90;;;;;;4997545;28;20584;-76
2023/02/10 07:40:30;;;;;;;26.92;16.55;;;-0.40;99.90;;;;;;5014332;28;20207;-77
2023/02/10 07:42:58;;;;;;;29.63;17.17;;;-0.30;99.90;;;;;;4997103;28;20191;-76
2023/02/10 07:45:30;;;;;;;23.35;16.27;;;-0.30;99.90;;;;;;4998040;28;20202;-76
2023/02/10 07:47:58;;;;;;;23.20;15.35;;;-0.10;99.90;;;;;;4997101;28;20202;-77
2023/02/10 07:50:27;;;;;;;22.63;16.10;;;0.00;99.90;;;;;;4995755;28;20212;-77
2023/02/10 07:53:02;;;;;;;23.67;15.32;;;0.20;99.90;;;;;;4999155;28;20222;-77
2023/02/10 07:55:30;;;;;;;21.27;15.43;;;0.50;99.90;;;;;;5001810;28;20217;-78
2023/02/10 07:57:59;;;;;;;27.42;15.70;;;0.70;99.90;;;;;;4996024;28;20725;-77
2023/02/10 08:00:28;;;;;;;21.63;16.42;;;0.90;99.90;;;;;;5002711;28;20548;-76
2023/02/10 08:02:57;;;;;;;20.88;15.68;;;1.20;99.90;;;;;;4995796;28;20201;-77
2023/02/10 08:05:28;;;;;;;23.50;16.50;;;1.50;99.90;;;;;;4997839;28;20302;-76
2023/02/10 08:07:56;;;;;;;25.42;16.45;;;1.60;99.90;;;;;;4996287;28;20849;-77
2023/02/10 08:10:26;;;;;;;24.08;15.77;;;1.80;99.90;;;;;;4996757;28;20787;-78
2023/02/10 08:12:54;;;;;;;22.55;16.95;;;1.90;99.90;;;;;;4997932;28;20836;-76
2023/02/10 08:15:25;;;;;;;24.88;15.77;;;2.10;99.90;;;;;;4997897;28;20213;-76
2023/02/10 08:17:54;;;;;;;25.50;16.38;;;2.30;99.90;;;;;;4995741;28;20206;-78
2023/02/10 08:20:23;;;;;;;23.33;15.73;;;2.40;99.90;;;;;;5000788;28;20679;-77
2023/02/10 08:22:54;;;;;;;23.83;16.48;;;2.40;99.90;;;;;;4998396;28;20222;-78
2023/02/10 08:25:23;;;;;;;20.90;15.65;;;2.60;99.90;;;;;;5002765;28;20315;-75
2023/02/10 08:27:53;;;;;;;23.92;15.82;;;2.80;99.90;;;;;;5001536;28;20223;-76
2023/02/10 08:30:21;;;;;;;22.17;15.52;;;3.20;99.90;;;;;;5001290;28;20208;-75
2023/02/10 08:32:50;;;;;;;22.95;16.38;;;3.50;99.90;;;;;;4997775;28;20669;-77
2023/02/10 08:35:19;;;;;;;19.52;15.00;;;3.80;99.90;;;;;;5002297;28;20687;-77
2023/02/10 08:37:48;;;;;;;22.17;16.40;;;4.10;99.90;;;;;;5002818;28;20199;-76
2023/02/10 08:40:17;;;;;;;25.83;17.05;;;4.30;99.90;;;;;;5005110;28;20261;-77
2023/02/10 08:42:47;;;;;;;24.52;16.80;;;4.70;99.90;;;;;;5002203;28;21027;-76
2023/02/10 08:45:17;;;;;;;25.77;16.45;;;5.10;99.90;;;;;;5003098;28;20207;-77
2023/02/10 08:47:47;;;;;;;28.37;20.93;;;5.40;99.90;;;;;;4992800;28;20452;-79
2023/02/10 08:50:15;;;;;;;22.63;16.40;;;5.50;99.90;;;;;;4983190;28;20450;-80
2023/02/10 08:52:43;;;;;;;27.93;17.83;;;5.90;99.90;;;;;;4987293;28;20485;-75
2023/02/10 08:55:12;;;;;;;24.20;18.03;;;6.30;99.60;;;;;;4991796;28;20579;-78
2023/02/10 08:57:40;;;;;;;25.50;17.70;;;6.50;96.60;;;;;;4993030;28;20556;-78
2023/02/10 09:00:09;;;;;;;33.57;17.87;;;7.10;95.90;;;;;;4994359;28;20458;-78
2023/02/10 09:02:39;;;;;;;27.87;18.53;;;7.50;95.80;;;;;;5027704;28;20500;-77
2023/02/10 09:05:08;;;;;;;27.50;18.27;;;7.60;96.00;;;;;;4994796;28;20558;-77
2023/02/10 09:07:38;;;;;;;29.30;17.70;;;7.20;88.40;;;;;;5001087;28;20532;-80
2023/02/10 09:10:10;;;;;;;25.27;17.00;;;7.20;85.90;;;;;;4997637;28;21144;-78
2023/02/10 09:12:38;;;;;;;25.83;16.70;;;7.10;78.80;;;;;;4998296;28;20474;-77
2023/02/10 09:15:08;;;;;;;24.43;16.50;;;6.80;76.40;;;;;;4998089;28;20462;-78
2023/02/10 09:17:37;;;;;;;27.07;18.20;;;6.70;76.40;;;;;;5000149;28;20461;-79
2023/02/10 09:20:07;;;;;;;22.03;16.10;;;6.60;75.90;;;;;;4997902;28;20844;-79
2023/02/10 09:22:35;;;;;;;26.47;17.87;;;6.90;81.80;;;;;;4996395;28;20478;-78
2023/02/10 09:25:04;;;;;;;24.23;17.20;;;7.20;83.60;;;;;;4993642;28;20447;-78
2023/02/10 09:27:32;;;;;;;23.53;16.50;;;7.40;82.10;;;;;;4996888;28;20457;-78
2023/02/10 09:30:01;;;;;;;25.90;17.60;;;7.30;77.10;;;;;;4996656;28;20458;-75
2023/02/10 09:32:30;;;;;;;23.20;17.87;;;7.30;73.80;;;;;;4993699;28;20478;-78
2023/02/10 09:34:59;;;;;;;26.03;17.50;;;7.50;76.40;;;;;;4997396;28;20513;-78
2023/02/10 09:37:27;;;;;;;27.83;18.97;;;7.90;76.70;;;;;;4995751;28;20464;-77
2023/02/10 09:39:55;;;;;;;26.73;18.30;;;8.60;84.90;;;;;;4998838;28;20465;-78
2023/02/10 09:42:39;;;;;;;23.30;16.83;;;9.40;87.20;;;;;;4990360;28;20484;-78
2023/02/10 09:45:15;;;;;;;27.40;18.40;;;10.20;85.90;;;;;;4989784;28;20454;-79
2023/02/10 09:47:49;;;;;;;25.03;17.73;;;10.70;84.30;;;;;;4994368;28;20457;-77
2023/02/10 09:50:41;;;;;;;22.33;17.23;;;10.90;79.70;;;;;;4992447;28;20439;-77
2023/02/10 09:53:13;;;;;;;23.03;16.90;;;11.00;74.20;;;;;;4991194;28;20462;-78
2023/02/10 09:55:47;;;;;;;26.30;18.50;;;11.30;73.10;;;;;;4996473;28;20596;-77
2023/02/10 09:58:23;;;;;;;22.03;17.53;;;11.10;75.10;;;;;;4994694;28;20471;-77
2023/02/10 10:00:58;;;;;;;22.90;15.80;;;11.20;65.70;;;;;;4993505;28;21019;-77
2023/02/10 10:03:34;;;;;;;26.67;16.27;;;11.20;64.20;;;;;;4995603;28;20452;-78
2023/02/10 10:06:11;;;;;;;22.63;17.10;;;11.50;65.20;;;;;;5002115;28;20962;-79
2023/02/10 10:08:46;;;;;;;27.63;16.67;;;11.60;66.70;;;;;;4997373;28;20461;-78
2023/02/10 10:11:33;;;;;;;21.50;16.40;;;11.80;68.50;;;;;;4996751;28;20489;-79
2023/02/10 10:14:02;;;;;;;21.97;14.70;;;11.80;80.80;;;;;;4995980;28;20494;-77
2023/02/10 10:16:56;;;;;;;27.20;16.77;;;12.00;63.90;;;;;;4994539;28;20549;-78
2023/02/10 10:19:33;;;;;;;23.20;16.07;;;12.30;66.30;;;;;;4993408;28;20970;-78
2023/02/10 10:22:24;;;;;;;26.00;17.13;;;12.50;65.80;;;;;;4993371;28;20473;-76
2023/02/10 10:25:07;;;;;;;24.53;16.20;;;12.80;69.80;;;;;;4994927;28;20463;-78
2023/02/10 10:27:48;;;;;;;19.00;14.70;;;13.00;69.00;;;;;;4987743;28;20525;-78
2023/02/10 10:30:19;;;;;;;24.13;15.60;;;13.30;69.80;;;;;;4992991;28;20541;-79
2023/02/10 10:32:53;;;;;;;19.40;15.90;;;13.70;74.40;;;;;;4993732;28;20581;-78
2023/02/10 10:35:24;;;;;;;22.53;16.50;;;14.10;78.70;;;;;;4993226;28;20504;-78
2023/02/10 10:37:55;;;;;;;20.43;16.70;;;14.30;77.60;;;;;;4990749;28;20460;-77
2023/02/10 10:40:28;;;;;;;19.63;12.90;;;15.10;86.40;;;;;;4994960;28;20495;-78
2023/02/10 10:42:59;;;;;;;24.60;18.23;;;15.50;89.00;;;;;;4995708;28;20480;-79
2023/02/10 10:45:32;;;;;;;21.40;15.97;;;16.10;92.10;;;;;;4997373;28;20564;-78
2023/02/10 10:48:06;;;;;;;21.00;16.07;;;16.40;92.40;;;;;;4999361;28;20462;-79
2023/02/10 10:50:35;;;;;;;20.10;14.70;;;16.40;92.60;;;;;;4996044;28;20506;-78
2023/02/10 10:53:14;;;;;;;16.80;13.70;;;17.00;94.80;;;;;;4997041;28;20474;-78
2023/02/10 10:55:47;;;;;;;17.00;14.67;;;17.50;97.30;;;;;;4991928;28;20468;-79
2023/02/10 10:58:25;;;;;;;22.43;15.10;;;17.40;95.80;;;;;;4996358;28;20488;-77
2023/02/10 11:00:55;;;;;;;19.90;14.13;;;17.30;90.70;;;;;;4995543;28;20495;-78
2023/02/10 11:03:24;;;;;;;16.50;14.00;;;17.90;93.20;;;;;;4996673;28;20441;-79
2023/02/10 11:06:05;;;;;;;21.70;15.47;;;18.10;94.10;;;;;;4995347;28;20491;-78
2023/02/10 11:08:41;;;;;;;18.47;13.67;;;17.80;90.70;;;;;;4998360;28;20446;-78
2023/02/10 11:11:14;;;;;;;16.90;13.00;;;17.40;86.20;;;;;;4996416;28;20630;-78
2023/02/10 11:14:02;;;;;;;18.80;14.53;;;16.60;75.40;;;;;;4994458;28;20491;-79
2023/02/10 11:16:40;;;;;;;16.00;13.57;;;16.50;69.50;;;;;;4995647;28;20487;-79
2023/02/10 11:19:18;;;;;;;15.90;13.63;;;16.40;70.20;;;;;;4995965;28;20480;-79
2023/02/10 11:21:46;;;;;;;19.30;15.20;;;16.20;66.70;;;;;;4999683;28;20461;-80
2023/02/10 11:24:21;;;;;;;15.60;12.47;;;16.00;63.10;;;;;;4992981;28;20453;-80
2023/02/10 11:27:00;;;;;;;18.57;14.00;;;16.10;63.20;;;;;;4994431;28;20556;-78
2023/02/10 11:29:31;;;;;;;15.83;14.23;;;16.40;68.10;;;;;;4994388;28;20556;-79
2023/02/10 11:32:00;;;;;;;19.37;15.70;;;16.90;78.80;;;;;;4992689;28;20476;-79
2023/02/10 11:34:31;;;;;;;17.87;15.97;;;17.90;90.20;;;;;;4985618;28;20468;-79
2023/02/10 11:37:10;;;;;;;17.00;14.27;;;18.80;96.00;;;;;;4988121;28;20474;-78
2023/02/10 11:39:43;;;;;;;18.42;16.33;;;19.10;98.10;;;;;;4994825;28;20454;-79
2023/02/10 11:42:17;;;;;;;14.87;13.27;;;18.20;91.90;;;;;;4997452;28;20600;-78
2023/02/10 11:44:55;;;;;;;17.58;15.30;;;16.50;67.60;;;;;;4997502;28;20792;-78
2023/02/10 11:47:23;;;;;;;20.23;14.50;;;15.10;46.80;;;;;;4995530;28;20209;-80
2023/02/10 11:49:52;;;;;;;17.67;13.13;;;13.90;31.60;;;;;;4995912;28;20579;-80
2023/02/10 11:52:22;;;;;;;16.70;13.47;;;13.40;29.00;;;;;;4993702;28;20600;-79
2023/02/10 11:54:52;;;;;;;19.20;12.43;;;13.10;25.70;;;;;;4994823;28;20511;-77
2023/02/10 12:00:26;;;;;;;20.30;12.80;;;12.40;19.20;;;;;;5000640;28;20451;-78
2023/02/10 12:03:35;;;;;;;19.30;13.90;;;12.00;16.10;;;;;;5001061;28;20533;-76
2023/02/10 12:06:08;;;;;;;21.90;13.47;;;11.60;12.20;;;;;;5002130;28;20457;-77
2023/02/10 12:08:47;;;;;;;18.17;12.30;;;11.70;13.00;;;;;;5004024;28;20462;-77
2023/02/10 12:11:25;;;;;;;16.07;12.47;;;11.60;12.50;;;;;;4991398;28;20491;-79
2023/02/10 12:14:01;;;;;;;15.37;12.33;;;11.70;13.60;;;;;;4999446;28;20541;-77
2023/02/10 12:16:42;;;;;;;15.10;11.70;;;11.50;11.30;;;;;;4996070;28;21226;-77
2023/02/10 12:19:20;;;;;;;15.57;12.30;;;11.40;10.90;;;;;;4996376;28;20484;-78
2023/02/10 12:22:10;;;;;;;16.87;12.13;;;11.60;13.60;;;;;;4994214;28;20488;-77
2023/02/10 12:25:04;;;;;;;18.70;13.40;;;11.50;11.50;;;;;;4995617;28;21016;-79
2023/02/10 12:27:50;;;;;;;15.43;12.20;;;11.20;9.10;;;;;;4982482;28;20455;-79
2023/02/10 12:30:28;;;;;;;18.13;13.53;;;10.90;7.30;;;;;;4993034;28;21201;-76
2023/02/10 12:33:06;;;;;;;16.70;12.30;;;11.20;10.00;;;;;;4998457;28;20503;-78
2023/02/10 12:35:44;;;;;;;17.57;13.70;;;11.40;10.10;;;;;;4995626;28;20582;-79
2023/02/10 12:38:30;;;;;;;17.80;11.70;;;11.10;8.40;;;;;;4996480;28;20480;-77
2023/02/10 12:41:09;;;;;;;17.33;13.17;;;11.30;9.70;;;;;;4995708;28;20487;-77
2023/02/10 12:43:58;;;;;;;14.97;11.70;;;11.20;9.30;;;;;;4996557;28;20466;-78
2023/02/10 12:46:33;;;;;;;13.77;11.57;;;11.40;10.80;;;;;;4995054;28;20454;-78
2023/02/10 12:49:13;;;;;;;18.43;11.80;;;11.20;7.70;;;;;;4997972;28;20457;-77
2023/02/10 12:51:52;;;;;;;19.00;12.03;;;11.00;5.50;;;;;;5001338;28;20476;-79
2023/02/10 12:54:25;;;;;;;15.20;12.20;;;11.20;7.40;;;;;;5001056;28;20465;-78
2023/02/10 12:57:13;;;;;;;15.80;11.17;;;11.20;8.80;;;;;;4995634;28;21105;-78
2023/02/10 12:59:53;;;;;;;15.90;10.80;;;11.30;8.90;;;;;;4999235;28;20450;-77
2023/02/10 13:02:27;;;;;;;16.00;11.20;;;11.30;8.00;;;;;;4999729;28;20842;-78